Weather at ASI Heliport [CLOSED]

Public forecast

Using degrees Fahrenheit for public forecast. Weather courtesy of forecast.io.

Closest aviation weather report (METAR) to ASI Heliport

Closest report is Phoenix Sky Harbor International Airport, 1.0 nm (1.9 km) SW.

2024/06/20 18:51 (retrieved 43 minutes ago)

KPHX 201851Z 12009KT 090V160 10SM CLR 42/13 A2967 RMK AO2 SLP023 T04220133

Closest aviation forecast (TAF) to ASI Heliport

Closest forecast is Phoenix Sky Harbor International Airport, 1.0 nm (1.9 km) SW.

2024/06/20 18:30 (retrieved 1 hour ago)

TAF KPHX 201727Z 2018/2124 13006KT P6SM SKC FM201900 17008KT P6SM SKC FM202200 25011G18KT P6SM FEW120 FM210300 29008KT P6SM FEW120 FM210500 10008KT P6SM FEW120 FM211000 11014G26KT P6SM FEW120 FM211800 17010G20KT P6SM FEW120